Terminal Aerodrome Forecast
Issued by NWS Twin Cities, MN

Home | Current Version | Previous Version | Graphics & Text | Print | Product List | Glossary Off
Versions: 1 2 3 4 5 6 7 8 9 10 11 12 13 14 15 16 17

000
FTUS43 KMPX 250500
TAFEAU
TAF
KEAU 250528Z 2506/2606 27005KT 6SM BR FEW006 OVC015
     FM250800 VRB02KT 3SM BR SCT015
      TEMPO 2509/2513 1/2SM FG VV003
     FM251400 28009KT 3SM BR BKN015
     FM251800 30012G19KT P6SM SCT020 SCT100
     FM260000 01006KT P6SM SKC=

USA.gov is the U.S. government's official web portal to all federal, state and local government web resources and services.